Time;durP1;ratioP1;P1;durP2;ratioP2;P2;SDS_P1;SDS_P2;PMS_P1;PMS_P2;Temp;Humidity;BMP_temperature;BMP_pressure;BME280_temperature;BME280_humidity;BME280_pressure;Samples;Min_cycle;Max_cycle;Signal;HPM_P1;HPM_P2
2021/12/17 00:00:57;;;;;;;;;120.20;114.60;;;;;;;;5051330;27;8799;-82
2021/12/17 00:03:34;;;;;;;;;121.60;112.80;;;;;;;;5053000;28;8780;-82
2021/12/17 00:06:13;;;;;;;;;116.80;113.40;;;;;;;;5071954;27;8802;-82
2021/12/17 00:08:40;;;;;;;;;101.75;95.25;;;;;;;;5086839;27;8772;-82
2021/12/17 00:11:05;;;;;;;;;108.60;103.40;;;;;;;;5052978;28;8801;-82
2021/12/17 00:13:31;;;;;;;;;118.25;111.25;;;;;;;;5052706;27;8842;-81
2021/12/17 00:15:57;;;;;;;;;105.40;95.80;;;;;;;;5052897;28;8857;-82
2021/12/17 00:18:30;;;;;;;;;113.00;104.75;;;;;;;;5066230;27;8820;-82
2021/12/17 00:53:06;;;;;;;;;94.25;80.00;;;;;;;;5052483;27;8933;-82
2021/12/17 00:55:31;;;;;;;;;106.60;96.20;;;;;;;;5052372;28;11668;-82
2021/12/17 00:57:57;;;;;;;;;102.00;92.25;;;;;;;;5038786;27;8931;-82
2021/12/17 01:00:23;;;;;;;;;113.00;108.33;;;;;;;;5052531;28;8926;-82
2021/12/17 01:02:48;;;;;;;;;101.00;91.00;;;;;;;;5050683;27;8939;-82
2021/12/17 01:05:19;;;;;;;;;101.00;87.25;;;;;;;;5050327;27;8804;-82
2021/12/17 01:07:46;;;;;;;;;99.00;90.75;;;;;;;;5107439;27;8804;-82
2021/12/17 01:10:16;;;;;;;;;108.80;105.60;;;;;;;;5053358;27;8811;-83
2021/12/17 01:12:42;;;;;;;;;107.00;99.00;;;;;;;;5050631;28;9650;-82
2021/12/17 01:15:09;;;;;;;;;103.67;94.67;;;;;;;;5052020;27;8839;-82
2021/12/17 01:17:38;;;;;;;;;130.20;121.60;;;;;;;;5052121;28;11703;-82
2021/12/17 01:20:21;;;;;;;;;113.40;110.40;;;;;;;;5050519;27;8895;-82
2021/12/17 01:23:02;;;;;;;;;105.40;99.00;;;;;;;;5051627;28;8796;-83
2021/12/17 01:36:25;;;;;;;;;109.00;106.60;;;;;;;;5055162;28;8781;-82
2021/12/17 01:44:07;;;;;;;;;110.60;107.00;;;;;;;;5100679;27;8782;-82
2021/12/17 01:46:33;;;;;;;;;99.00;88.00;;;;;;;;5051895;27;8842;-81
2021/12/17 01:59:56;;;;;;;;;107.20;102.00;;;;;;;;5051314;27;9772;-82
2021/12/17 02:02:21;;;;;;;;;124.40;116.20;;;;;;;;5050229;27;8954;-82
2021/12/17 02:04:46;;;;;;;;;132.40;126.00;;;;;;;;5050708;27;8816;-82
2021/12/17 02:07:12;;;;;;;;;128.25;124.25;;;;;;;;5054905;27;8901;-82
2021/12/17 02:29:01;;;;;;;;;110.00;103.25;;;;;;;;5038125;28;8784;-83
2021/12/17 02:31:29;;;;;;;;;108.00;104.20;;;;;;;;5051038;28;8888;-82
2021/12/17 02:33:59;;;;;;;;;126.80;121.60;;;;;;;;5050820;28;8800;-81
2021/12/17 02:36:28;;;;;;;;;118.60;113.40;;;;;;;;5050694;27;8756;-81
2021/12/17 02:39:03;;;;;;;;;123.20;118.00;;;;;;;;5050969;28;8814;-81
2021/12/17 02:46:57;;;;;;;;;128.60;121.20;;;;;;;;5050699;28;8784;-81
2021/12/17 02:49:23;;;;;;;;;122.00;115.25;;;;;;;;5050495;27;8895;-82
2021/12/17 02:51:49;;;;;;;;;114.60;109.60;;;;;;;;5050451;28;8961;-83
2021/12/17 02:54:15;;;;;;;;;103.40;95.20;;;;;;;;5049317;27;8898;-82
2021/12/17 02:56:40;;;;;;;;;122.40;119.80;;;;;;;;5050710;28;8834;-82
2021/12/17 02:59:10;;;;;;;;;122.40;118.20;;;;;;;;5050773;27;8816;-82
2021/12/17 03:01:35;;;;;;;;;110.00;103.00;;;;;;;;5051095;28;8873;-82
2021/12/17 03:04:01;;;;;;;;;125.75;121.25;;;;;;;;5049966;27;8792;-82
2021/12/17 03:06:27;;;;;;;;;117.00;108.40;;;;;;;;5054364;27;11646;-81
2021/12/17 03:08:52;;;;;;;;;108.80;105.40;;;;;;;;5050223;27;8807;-82
2021/12/17 03:11:18;;;;;;;;;114.75;109.00;;;;;;;;5050828;28;8910;-81
2021/12/17 03:13:45;;;;;;;;;117.75;116.50;;;;;;;;5050435;27;8845;-81
2021/12/17 03:19:09;;;;;;;;;101.00;96.50;;;;;;;;5049938;28;8780;-81
2021/12/17 03:24:20;;;;;;;;;105.25;101.00;;;;;;;;5038298;28;8764;-81
2021/12/17 03:26:45;;;;;;;;;111.00;109.00;;;;;;;;5050129;27;8807;-81
2021/12/17 03:29:11;;;;;;;;;110.40;106.80;;;;;;;;5051759;28;8803;-81
2021/12/17 03:31:37;;;;;;;;;106.60;104.20;;;;;;;;5053081;27;8824;-81
2021/12/17 03:34:22;;;;;;;;;103.33;100.67;;;;;;;;5053012;28;8813;-81
2021/12/17 03:36:48;;;;;;;;;104.60;99.60;;;;;;;;5052812;28;11657;-81
2021/12/17 03:39:14;;;;;;;;;102.00;96.00;;;;;;;;5053723;28;8905;-81
2021/12/17 03:41:47;;;;;;;;;104.50;95.25;;;;;;;;5052810;27;8816;-81
2021/12/17 03:44:12;;;;;;;;;104.50;100.25;;;;;;;;5109637;27;8782;-81
2021/12/17 03:46:37;;;;;;;;;109.00;101.50;;;;;;;;5057641;27;8851;-81
2021/12/17 03:49:03;;;;;;;;;105.00;102.50;;;;;;;;5052813;28;8788;-81
2021/12/17 03:51:29;;;;;;;;;120.00;115.40;;;;;;;;5052731;27;8843;-81
2021/12/17 03:53:55;;;;;;;;;117.67;108.33;;;;;;;;5053012;28;8908;-81
2021/12/17 03:56:22;;;;;;;;;119.80;110.00;;;;;;;;5046426;27;9272;-81
2021/12/17 03:58:53;;;;;;;;;103.20;99.80;;;;;;;;5045111;28;8811;-81
2021/12/17 04:01:19;;;;;;;;;110.60;107.00;;;;;;;;5053192;28;8765;-82
2021/12/17 04:03:45;;;;;;;;;119.75;115.25;;;;;;;;5052405;28;8769;-81
2021/12/17 04:06:10;;;;;;;;;123.25;119.25;;;;;;;;5080693;27;8852;-81
2021/12/17 04:08:35;;;;;;;;;117.40;114.20;;;;;;;;5082090;27;8800;-82
2021/12/17 04:11:08;;;;;;;;;118.40;115.40;;;;;;;;5050994;28;8835;-81
2021/12/17 04:13:37;;;;;;;;;123.17;118.33;;;;;;;;5052661;28;8750;-82
2021/12/17 04:16:06;;;;;;;;;134.40;132.40;;;;;;;;5052447;27;8784;-82
2021/12/17 04:18:32;;;;;;;;;134.40;133.00;;;;;;;;5052272;27;9040;-82
2021/12/17 04:20:59;;;;;;;;;132.20;127.40;;;;;;;;5051757;27;8792;-81
2021/12/17 04:23:25;;;;;;;;;141.75;136.00;;;;;;;;5052927;28;8796;-82
2021/12/17 04:25:51;;;;;;;;;149.20;143.00;;;;;;;;5052110;27;9408;-81
2021/12/17 04:28:17;;;;;;;;;154.00;152.20;;;;;;;;5052785;28;8891;-81
2021/12/17 04:30:44;;;;;;;;;155.67;150.67;;;;;;;;5052013;27;8800;-81
2021/12/17 04:33:09;;;;;;;;;161.50;157.25;;;;;;;;5052498;27;8784;-81
2021/12/17 04:35:37;;;;;;;;;166.00;161.50;;;;;;;;5058353;28;8843;-81
2021/12/17 04:38:05;;;;;;;;;167.00;162.60;;;;;;;;5058952;27;8788;-81
2021/12/17 04:40:30;;;;;;;;;162.50;155.83;;;;;;;;5038618;28;8776;-81
2021/12/17 04:43:11;;;;;;;;;169.40;166.20;;;;;;;;5052211;27;8832;-82
2021/12/17 04:45:43;;;;;;;;;165.00;162.80;;;;;;;;5109316;27;9751;-82
2021/12/17 04:59:06;;;;;;;;;179.00;174.20;;;;;;;;5052110;28;9713;-82
2021/12/17 05:01:32;;;;;;;;;202.83;198.33;;;;;;;;5052216;27;8788;-82
2021/12/17 05:03:58;;;;;;;;;187.20;181.80;;;;;;;;5051378;28;8796;-82
2021/12/17 05:06:28;;;;;;;;;183.20;182.00;;;;;;;;5054632;27;8835;-82
2021/12/17 05:08:58;;;;;;;;;197.33;196.17;;;;;;;;5051303;28;8772;-82
2021/12/17 05:19:47;;;;;;;;;189.17;186.17;;;;;;;;5051792;28;8804;-82
2021/12/17 05:22:13;;;;;;;;;180.17;177.00;;;;;;;;5051702;28;8788;-82
2021/12/17 05:24:38;;;;;;;;;176.75;173.25;;;;;;;;5050434;28;8830;-82
2021/12/17 05:27:04;;;;;;;;;166.50;162.25;;;;;;;;5051480;27;8880;-81
2021/12/17 05:29:30;;;;;;;;;172.20;172.00;;;;;;;;5051861;28;11762;-81
2021/12/17 05:31:55;;;;;;;;;179.00;174.00;;;;;;;;5050975;27;12257;-82
2021/12/17 05:34:20;;;;;;;;;167.00;161.20;;;;;;;;5051530;27;8800;-82
2021/12/17 05:36:46;;;;;;;;;174.40;171.40;;;;;;;;5051228;27;8804;-81
2021/12/17 05:39:11;;;;;;;;;176.60;168.80;;;;;;;;5051710;28;8919;-81
2021/12/17 05:41:36;;;;;;;;;167.80;163.80;;;;;;;;5051547;27;8819;-82
2021/12/17 05:44:01;;;;;;;;;167.00;163.00;;;;;;;;5099537;27;8818;-82
2021/12/17 05:46:48;;;;;;;;;155.25;150.00;;;;;;;;5065459;27;8816;-82
2021/12/17 05:49:14;;;;;;;;;148.80;147.60;;;;;;;;5051273;27;8780;-82
2021/12/17 05:51:39;;;;;;;;;163.60;158.80;;;;;;;;5056666;28;8810;-82
2021/12/17 05:54:04;;;;;;;;;151.75;148.50;;;;;;;;5057405;27;8925;-82
2021/12/17 05:56:30;;;;;;;;;149.50;146.75;;;;;;;;5043802;27;8803;-82
2021/12/17 05:58:56;;;;;;;;;146.50;145.25;;;;;;;;5045684;28;8847;-82
2021/12/17 06:01:22;;;;;;;;;145.20;141.20;;;;;;;;5051631;28;8768;-82
2021/12/17 06:03:47;;;;;;;;;146.00;143.75;;;;;;;;5050787;27;8800;-82
2021/12/17 06:06:12;;;;;;;;;148.67;145.33;;;;;;;;5080103;27;8915;-82
2021/12/17 06:08:38;;;;;;;;;149.25;148.00;;;;;;;;5076335;27;8886;-82
2021/12/17 06:11:03;;;;;;;;;146.00;142.20;;;;;;;;5050015;28;9547;-82
2021/12/17 06:13:28;;;;;;;;;139.50;132.75;;;;;;;;5050924;27;9141;-81
2021/12/17 06:15:53;;;;;;;;;144.67;140.67;;;;;;;;5048683;28;9412;-81
2021/12/17 06:18:19;;;;;;;;;154.25;149.00;;;;;;;;5050851;27;8804;-81
2021/12/17 06:20:44;;;;;;;;;152.50;147.25;;;;;;;;5037039;28;9593;-82
2021/12/17 06:23:09;;;;;;;;;145.75;143.25;;;;;;;;5060087;27;8797;-82
2021/12/17 06:25:35;;;;;;;;;144.60;142.00;;;;;;;;5069035;28;8793;-81
2021/12/17 06:28:00;;;;;;;;;145.00;140.80;;;;;;;;5050575;27;8812;-82
2021/12/17 06:30:25;;;;;;;;;145.25;143.00;;;;;;;;5050666;28;9573;-81
2021/12/17 06:32:51;;;;;;;;;150.00;148.50;;;;;;;;5050513;27;8797;-81
2021/12/17 06:35:16;;;;;;;;;154.00;151.50;;;;;;;;5049748;28;8792;-81
2021/12/17 06:37:43;;;;;;;;;144.40;140.60;;;;;;;;5051394;27;8824;-81
2021/12/17 06:40:09;;;;;;;;;146.20;144.00;;;;;;;;5053793;28;8749;-81
2021/12/17 06:42:34;;;;;;;;;145.00;142.67;;;;;;;;5050770;27;8784;-81
2021/12/17 06:45:04;;;;;;;;;153.60;149.60;;;;;;;;5055903;27;11328;-81
2021/12/17 06:47:33;;;;;;;;;146.33;142.00;;;;;;;;5050740;28;8740;-82
2021/12/17 06:55:42;;;;;;;;;155.33;149.83;;;;;;;;5038068;28;8756;-81
2021/12/17 07:09:53;;;;;;;;;143.17;138.50;;;;;;;;5049985;28;8800;-79
2021/12/17 07:22:30;;;;;;;;;140.60;138.80;;;;;;;;5050190;27;8831;-79
2021/12/17 07:33:02;;;;;;;;;144.00;141.20;;;;;;;;5044900;27;8882;-79
2021/12/17 07:35:40;;;;;;;;;145.00;140.50;;;;;;;;5049514;27;8823;-80
2021/12/17 07:40:49;;;;;;;;;148.60;144.80;;;;;;;;5050106;28;8789;-79
2021/12/17 07:43:24;;;;;;;;;148.60;145.00;;;;;;;;5064161;27;8832;-79
2021/12/17 07:45:50;;;;;;;;;150.17;146.50;;;;;;;;5091639;27;8772;-79
2021/12/17 07:48:15;;;;;;;;;144.00;141.00;;;;;;;;5049910;28;8909;-79
2021/12/17 07:50:41;;;;;;;;;152.50;149.25;;;;;;;;5072492;27;8887;-79
2021/12/17 07:53:06;;;;;;;;;151.75;149.50;;;;;;;;5060726;27;8938;-80
2021/12/17 07:55:32;;;;;;;;;153.20;150.40;;;;;;;;5049980;28;8907;-80
2021/12/17 07:57:58;;;;;;;;;153.17;151.67;;;;;;;;5036774;28;8941;-80
2021/12/17 08:00:23;;;;;;;;;150.25;146.75;;;;;;;;5050126;28;9576;-80
2021/12/17 08:02:48;;;;;;;;;156.50;151.75;;;;;;;;5048097;28;11558;-80
2021/12/17 08:05:14;;;;;;;;;160.50;159.50;;;;;;;;5048075;27;8835;-80
2021/12/17 08:07:40;;;;;;;;;156.40;151.40;;;;;;;;5103899;27;8827;-80
2021/12/17 08:10:05;;;;;;;;;163.50;162.50;;;;;;;;5050190;27;8941;-80
2021/12/17 08:12:30;;;;;;;;;167.25;164.25;;;;;;;;5062281;28;8844;-79
2021/12/17 08:14:56;;;;;;;;;177.40;169.00;;;;;;;;5052109;27;8868;-78
2021/12/17 08:17:44;;;;;;;;;172.50;170.00;;;;;;;;5052355;28;8897;-79
2021/12/17 08:26:24;;;;;;;;;184.40;181.80;;;;;;;;5050638;28;9654;-81
2021/12/17 08:28:49;;;;;;;;;179.80;172.60;;;;;;;;5064858;27;11539;-81
2021/12/17 08:31:12;;;;;;;;;181.80;175.00;;;;;;;;5052382;27;8824;-80
2021/12/17 08:33:37;;;;;;;;;166.75;166.75;;;;;;;;5052565;27;8819;-81
2021/12/17 08:36:03;;;;;;;;;159.25;157.50;;;;;;;;5051887;27;10570;-80
2021/12/17 08:38:28;;;;;;;;;176.00;171.60;;;;;;;;5055990;27;11612;-81
2021/12/17 08:40:54;;;;;;;;;179.75;177.75;;;;;;;;5050549;27;8833;-81
2021/12/17 08:43:21;;;;;;;;;181.67;178.50;;;;;;;;5069925;27;8797;-81
2021/12/17 08:45:47;;;;;;;;;183.17;177.83;;;;;;;;5075437;27;8808;-81
2021/12/17 08:48:12;;;;;;;;;178.80;177.60;;;;;;;;5052203;27;8834;-81
2021/12/17 08:50:37;;;;;;;;;208.20;206.80;;;;;;;;5047200;27;8934;-82
2021/12/17 08:53:03;;;;;;;;;205.40;203.40;;;;;;;;5053755;27;8970;-83
2021/12/17 08:55:28;;;;;;;;;184.33;180.33;;;;;;;;5061622;28;8876;-83
2021/12/17 08:57:53;;;;;;;;;204.00;200.60;;;;;;;;5051270;28;8820;-83
2021/12/17 09:00:19;;;;;;;;;222.40;219.20;;;;;;;;5052133;27;8851;-83
2021/12/17 09:02:44;;;;;;;;;229.60;226.40;;;;;;;;5053629;27;8822;-84
2021/12/17 09:05:10;;;;;;;;;239.00;237.80;;;;;;;;5049400;27;8870;-83
2021/12/17 09:07:36;;;;;;;;;244.50;241.33;;;;;;;;5087067;27;8841;-82
2021/12/17 09:10:05;;;;;;;;;267.83;264.33;;;;;;;;5056027;27;8816;-82
2021/12/17 09:12:30;;;;;;;;;281.33;275.83;;;;;;;;5051957;28;8796;-82
2021/12/17 09:14:56;;;;;;;;;276.83;274.83;;;;;;;;5064092;27;8931;-82
2021/12/17 09:17:24;;;;;;;;;302.83;299.83;;;;;;;;5051962;28;8820;-82
2021/12/17 09:19:49;;;;;;;;;262.67;258.83;;;;;;;;5050726;27;8915;-82
2021/12/17 09:22:15;;;;;;;;;330.33;326.67;;;;;;;;5062744;27;8793;-82
2021/12/17 09:24:40;;;;;;;;;299.17;298.17;;;;;;;;5071504;28;8813;-82
2021/12/17 09:27:05;;;;;;;;;347.40;346.40;;;;;;;;5071086;27;8924;-82
2021/12/17 09:29:31;;;;;;;;;279.67;277.83;;;;;;;;5073122;28;8828;-82
2021/12/17 09:31:56;;;;;;;;;288.20;284.80;;;;;;;;5092838;27;8842;-82
2021/12/17 09:34:22;;;;;;;;;290.75;286.25;;;;;;;;5063260;27;9986;-82
2021/12/17 09:36:48;;;;;;;;;295.33;295.33;;;;;;;;5050808;27;8909;-81
2021/12/17 09:39:13;;;;;;;;;287.33;283.67;;;;;;;;5050987;28;8854;-82
2021/12/17 09:41:43;;;;;;;;;323.25;318.75;;;;;;;;5064269;27;8847;-81
2021/12/17 09:44:08;;;;;;;;;324.20;321.60;;;;;;;;5087138;27;8877;-82
2021/12/17 09:46:34;;;;;;;;;318.17;313.33;;;;;;;;5061004;27;8800;-81
2021/12/17 09:48:59;;;;;;;;;345.80;341.40;;;;;;;;5054755;27;8846;-82
2021/12/17 09:51:25;;;;;;;;;333.60;326.00;;;;;;;;5051012;27;8858;-82
2021/12/17 09:53:50;;;;;;;;;326.33;320.00;;;;;;;;5050502;28;8804;-82
2021/12/17 09:56:16;;;;;;;;;333.20;330.60;;;;;;;;5051581;27;9605;-81
2021/12/17 09:58:41;;;;;;;;;344.83;343.00;;;;;;;;5056602;27;8823;-83
2021/12/17 10:01:06;;;;;;;;;250.83;245.33;;;;;;;;5054222;27;8788;-83
2021/12/17 10:03:32;;;;;;;;;327.00;323.40;;;;;;;;5068448;27;8835;-83
2021/12/17 10:05:57;;;;;;;;;277.60;275.20;;;;;;;;5066780;27;8833;-81
2021/12/17 10:08:24;;;;;;;;;291.80;287.60;;;;;;;;5099016;27;8852;-83
2021/12/17 10:10:53;;;;;;;;;254.33;251.83;;;;;;;;5048749;27;8858;-83
2021/12/17 10:13:26;;;;;;;;;254.00;253.40;;;;;;;;5050582;27;8908;-84
2021/12/17 10:15:55;;;;;;;;;256.67;252.50;;;;;;;;5048948;28;8800;-84
2021/12/17 10:18:30;;;;;;;;;269.17;267.83;;;;;;;;5048052;28;8804;-83
2021/12/17 10:20:58;;;;;;;;;264.17;263.67;;;;;;;;5038470;27;8812;-83
2021/12/17 10:23:24;;;;;;;;;269.80;267.40;;;;;;;;5050033;28;8791;-84
2021/12/17 10:25:50;;;;;;;;;269.67;266.33;;;;;;;;5050466;27;8802;-83
2021/12/17 10:28:15;;;;;;;;;270.00;268.80;;;;;;;;5050652;28;8788;-84
2021/12/17 10:30:42;;;;;;;;;266.40;264.40;;;;;;;;5050170;27;9576;-83
2021/12/17 10:33:08;;;;;;;;;319.71;310.14;;;;;;;;5048550;28;8792;-83
2021/12/17 10:35:35;;;;;;;;;260.83;259.67;;;;;;;;5050783;28;8784;-83
2021/12/17 10:38:03;;;;;;;;;262.17;260.83;;;;;;;;5049839;28;8801;-83
2021/12/17 10:40:42;;;;;;;;;276.17;272.33;;;;;;;;5050398;27;8800;-83
2021/12/17 10:43:15;;;;;;;;;276.83;273.83;;;;;;;;5059595;27;8821;-83
2021/12/17 10:45:45;;;;;;;;;277.33;275.67;;;;;;;;5091296;27;8806;-83
2021/12/17 10:50:54;;;;;;;;;271.00;266.00;;;;;;;;5050069;28;8808;-83
2021/12/17 10:53:23;;;;;;;;;261.80;259.40;;;;;;;;5052275;27;9009;-83
2021/12/17 10:55:49;;;;;;;;;269.83;267.00;;;;;;;;5051854;27;8768;-83
2021/12/17 10:58:14;;;;;;;;;289.00;283.75;;;;;;;;5039316;27;8840;-83
2021/12/17 11:00:48;;;;;;;;;253.40;250.00;;;;;;;;5049059;28;8816;-83
2021/12/17 11:03:13;;;;;;;;;269.67;267.83;;;;;;;;5050288;27;8876;-83
2021/12/17 11:05:39;;;;;;;;;295.75;292.25;;;;;;;;5055180;27;8871;-84
2021/12/17 11:08:18;;;;;;;;;271.60;264.40;;;;;;;;5101693;27;8788;-83
2021/12/17 11:10:47;;;;;;;;;244.83;237.50;;;;;;;;5049672;27;8839;-83
2021/12/17 11:13:17;;;;;;;;;249.17;248.33;;;;;;;;5050138;28;8897;-83
2021/12/17 11:15:42;;;;;;;;;257.17;252.17;;;;;;;;5042209;28;8813;-83
2021/12/17 11:18:07;;;;;;;;;237.20;233.80;;;;;;;;5069963;27;8809;-83
2021/12/17 11:20:37;;;;;;;;;227.60;223.80;;;;;;;;5049962;28;8788;-83
2021/12/17 11:23:06;;;;;;;;;241.00;238.50;;;;;;;;5048614;27;8789;-83
2021/12/17 11:25:32;;;;;;;;;235.20;227.80;;;;;;;;5050328;28;8889;-83
2021/12/17 11:27:58;;;;;;;;;233.80;231.60;;;;;;;;5049332;27;8894;-81
2021/12/17 11:30:50;;;;;;;;;250.00;248.75;;;;;;;;5052625;28;12481;-91
2021/12/17 11:33:15;;;;;;;;;261.50;260.00;;;;;;;;5051342;28;8827;-84
2021/12/17 11:35:42;;;;;;;;;222.20;217.20;;;;;;;;5047325;27;8816;-85
2021/12/17 11:38:11;;;;;;;;;229.33;223.00;;;;;;;;5048154;27;8796;-83
2021/12/17 11:40:43;;;;;;;;;267.50;261.33;;;;;;;;5049292;27;8888;-83
2021/12/17 11:43:18;;;;;;;;;210.40;206.40;;;;;;;;5058413;27;8800;-83
2021/12/17 11:45:44;;;;;;;;;265.40;262.60;;;;;;;;5100271;27;11563;-82
2021/12/17 11:48:11;;;;;;;;;245.67;240.67;;;;;;;;5106960;27;8886;-83
2021/12/17 11:50:36;;;;;;;;;231.00;229.40;;;;;;;;5048293;27;8824;-82
2021/12/17 11:53:14;;;;;;;;;213.40;212.80;;;;;;;;5053428;27;8868;-83
2021/12/17 11:55:40;;;;;;;;;159.17;157.00;;;;;;;;5058307;28;8730;-81
2021/12/17 11:58:09;;;;;;;;;176.40;174.60;;;;;;;;5056631;27;9906;-84
2021/12/17 12:00:40;;;;;;;;;183.60;182.60;;;;;;;;5101659;27;8897;-83
2021/12/17 12:03:16;;;;;;;;;164.40;160.80;;;;;;;;5067081;27;8796;-84
2021/12/17 12:05:43;;;;;;;;;160.00;153.00;;;;;;;;5067471;27;8764;-83
2021/12/17 12:08:51;;;;;;;;;149.40;145.80;;;;;;;;5135852;27;8938;-84
2021/12/17 12:11:18;;;;;;;;;160.20;157.80;;;;;;;;5092419;27;8749;-83
2021/12/17 12:14:05;;;;;;;;;172.40;170.00;;;;;;;;5071127;27;8778;-83
2021/12/17 12:16:31;;;;;;;;;160.80;159.20;;;;;;;;5044133;28;8958;-83
2021/12/17 12:19:07;;;;;;;;;169.00;167.75;;;;;;;;5051698;27;9000;-83
2021/12/17 12:21:33;;;;;;;;;141.80;139.80;;;;;;;;5052099;28;8911;-82
2021/12/17 12:24:10;;;;;;;;;129.00;128.00;;;;;;;;5069438;27;8932;-81
2021/12/17 12:26:39;;;;;;;;;152.60;149.80;;;;;;;;5058357;28;8780;-83
2021/12/17 12:29:06;;;;;;;;;143.20;140.80;;;;;;;;5052645;27;11569;-82
2021/12/17 12:31:34;;;;;;;;;156.40;154.80;;;;;;;;5052486;28;8748;-83
2021/12/17 12:34:03;;;;;;;;;150.00;146.40;;;;;;;;5051911;27;11491;-81
2021/12/17 12:36:44;;;;;;;;;126.60;123.80;;;;;;;;5047784;28;9654;-82
2021/12/17 12:39:18;;;;;;;;;136.00;131.40;;;;;;;;5052457;27;8752;-83
2021/12/17 12:41:48;;;;;;;;;119.00;116.40;;;;;;;;5055687;27;8823;-83
2021/12/17 12:44:14;;;;;;;;;114.75;112.00;;;;;;;;5108395;27;8789;-82
2021/12/17 12:46:53;;;;;;;;;127.25;124.25;;;;;;;;5059685;27;8809;-82
2021/12/17 12:49:37;;;;;;;;;119.80;117.60;;;;;;;;5070354;28;8828;-82
2021/12/17 12:52:15;;;;;;;;;129.50;127.75;;;;;;;;5062450;27;8837;-82
2021/12/17 12:54:40;;;;;;;;;134.33;131.83;;;;;;;;5056760;28;8770;-83
2021/12/17 12:57:06;;;;;;;;;124.50;119.25;;;;;;;;5045203;27;8841;-83
2021/12/17 12:59:32;;;;;;;;;134.33;130.67;;;;;;;;5066923;28;8934;-83
2021/12/17 13:01:57;;;;;;;;;117.67;117.67;;;;;;;;5051187;27;11608;-84
2021/12/17 13:04:23;;;;;;;;;114.25;111.75;;;;;;;;5068105;27;8811;-83
2021/12/17 13:06:48;;;;;;;;;100.40;95.60;;;;;;;;5089315;27;8815;-83
2021/12/17 13:09:26;;;;;;;;;86.75;79.50;;;;;;;;5065300;27;8797;-83
2021/12/17 13:11:52;;;;;;;;;83.60;70.00;;;;;;;;5059213;28;8933;-83
2021/12/17 13:14:23;;;;;;;;;64.50;52.00;;;;;;;;5051783;27;8828;-84
2021/12/17 13:17:06;;;;;;;;;75.25;61.50;;;;;;;;5057678;27;8800;-84
2021/12/17 13:22:40;;;;;;;;;43.60;36.40;;;;;;;;5057380;28;8794;-83
2021/12/17 13:25:00;;;;;;;;;64.00;52.40;;;;;;;;5057287;28;8808;-84
2021/12/17 13:27:25;;;;;;;;;22.33;18.33;;;;;;;;5052291;27;8887;-83
2021/12/17 13:29:51;;;;;;;;;57.33;45.67;;;;;;;;5051391;28;8815;-83
2021/12/17 13:32:17;;;;;;;;;65.25;53.50;;;;;;;;5060039;27;8841;-83
2021/12/17 13:34:51;;;;;;;;;71.00;58.00;;;;;;;;5058941;28;8777;-83
2021/12/17 13:37:19;;;;;;;;;30.40;28.20;;;;;;;;5051996;27;8808;-83
2021/12/17 13:39:56;;;;;;;;;65.25;53.25;;;;;;;;5050100;28;8819;-83
2021/12/17 13:42:42;;;;;;;;;28.25;23.25;;;;;;;;5051621;27;11498;-83
2021/12/17 13:45:14;;;;;;;;;18.20;12.40;;;;;;;;5106984;27;8900;-83
2021/12/17 13:47:47;;;;;;;;;78.00;64.60;;;;;;;;5064438;27;9758;-83
2021/12/17 13:50:18;;;;;;;;;31.20;29.40;;;;;;;;5050933;27;8888;-84
2021/12/17 13:52:53;;;;;;;;;91.00;85.20;;;;;;;;5049695;27;8812;-83
2021/12/17 13:55:38;;;;;;;;;79.40;63.00;;;;;;;;5059875;28;8809;-83
2021/12/17 13:58:09;;;;;;;;;87.80;75.80;;;;;;;;5038184;28;8932;-83
2021/12/17 14:00:39;;;;;;;;;83.40;73.20;;;;;;;;5051294;27;8785;-83
2021/12/17 14:03:07;;;;;;;;;64.60;54.40;;;;;;;;5049014;27;11489;-83
2021/12/17 14:06:45;;;;;;;;;114.00;111.80;;;;;;;;5099740;27;8860;-82
2021/12/17 14:08:27;;;;;;;;;103.83;101.50;;;;;;;;5078928;27;8838;-83
2021/12/17 14:10:56;;;;;;;;;103.33;101.00;;;;;;;;5049283;27;8882;-83
2021/12/17 14:13:23;;;;;;;;;117.83;116.00;;;;;;;;5050796;27;8796;-83
2021/12/17 14:15:50;;;;;;;;;173.60;171.80;;;;;;;;5055083;27;9786;-83
2021/12/17 14:18:17;;;;;;;;;177.00;174.80;;;;;;;;5050238;27;8906;-83
2021/12/17 14:20:46;;;;;;;;;153.50;151.25;;;;;;;;5049091;28;8828;-83
2021/12/17 14:23:14;;;;;;;;;158.40;155.60;;;;;;;;5050392;27;8805;-83
2021/12/17 14:25:40;;;;;;;;;114.00;108.20;;;;;;;;5050589;28;10482;-83
2021/12/17 14:28:11;;;;;;;;;114.80;110.00;;;;;;;;5050279;27;8944;-83
2021/12/17 14:30:40;;;;;;;;;208.67;204.67;;;;;;;;5050724;27;8816;-83
2021/12/17 14:33:21;;;;;;;;;212.50;211.17;;;;;;;;5049891;27;8818;-83
2021/12/17 14:35:49;;;;;;;;;142.20;142.20;;;;;;;;5061145;27;8777;-83
2021/12/17 14:38:15;;;;;;;;;214.00;212.67;;;;;;;;5050454;27;8904;-83
2021/12/17 14:43:18;;;;;;;;;286.50;286.33;;;;;;;;5057354;27;11559;-83
2021/12/17 14:45:50;;;;;;;;;280.20;277.60;;;;;;;;5074783;27;8888;-84
2021/12/17 14:48:22;;;;;;;;;310.14;306.71;;;;;;;;5049811;28;8804;-84
2021/12/17 15:00:20;;;;;;;;;255.29;249.57;;;;;;;;5066181;27;9656;-83
2021/12/17 15:04:47;;;;;;;;;205.33;204.67;;;;;;;;5050406;27;9036;-83
2021/12/17 15:07:13;;;;;;;;;215.00;211.20;;;;;;;;5058449;27;11765;-83
2021/12/17 15:09:42;;;;;;;;;210.60;208.00;;;;;;;;5050002;27;8857;-83
2021/12/17 15:14:53;;;;;;;;;219.20;218.60;;;;;;;;5041733;28;8811;-81
2021/12/17 15:17:20;;;;;;;;;193.20;193.20;;;;;;;;5050053;28;11511;-81
2021/12/17 15:19:46;;;;;;;;;174.67;173.33;;;;;;;;5049010;27;8792;-81
2021/12/17 15:22:11;;;;;;;;;196.80;193.00;;;;;;;;5049886;28;8800;-81
2021/12/17 15:24:36;;;;;;;;;180.60;180.20;;;;;;;;5049223;27;9617;-81
2021/12/17 15:27:02;;;;;;;;;158.00;156.80;;;;;;;;5050076;28;8796;-81
2021/12/17 15:29:27;;;;;;;;;149.00;147.60;;;;;;;;5049898;27;8814;-81
2021/12/17 15:31:53;;;;;;;;;157.80;156.60;;;;;;;;5049774;27;8848;-81
2021/12/17 15:34:18;;;;;;;;;168.00;168.00;;;;;;;;5049950;27;8816;-81
2021/12/17 15:36:43;;;;;;;;;132.50;132.50;;;;;;;;5049820;28;8808;-81
2021/12/17 15:39:09;;;;;;;;;123.25;122.00;;;;;;;;5048778;27;8883;-81
2021/12/17 15:41:39;;;;;;;;;112.00;109.67;;;;;;;;5049577;27;8812;-81
2021/12/17 15:44:04;;;;;;;;;120.50;113.17;;;;;;;;5100309;27;8762;-81
2021/12/17 15:46:30;;;;;;;;;127.60;122.80;;;;;;;;5066210;27;9008;-81
2021/12/17 15:48:55;;;;;;;;;108.40;106.20;;;;;;;;5049897;28;8826;-81
2021/12/17 15:51:20;;;;;;;;;131.67;127.67;;;;;;;;5048199;27;8844;-81
2021/12/17 15:53:46;;;;;;;;;109.80;108.40;;;;;;;;5047395;28;8808;-81
2021/12/17 15:56:11;;;;;;;;;120.75;119.00;;;;;;;;5044263;27;8888;-81
2021/12/17 15:58:36;;;;;;;;;108.20;107.20;;;;;;;;5042056;28;8808;-81
2021/12/17 16:01:03;;;;;;;;;117.00;116.00;;;;;;;;5049568;28;9592;-81
2021/12/17 16:03:34;;;;;;;;;101.00;96.17;;;;;;;;5049541;27;8784;-81
2021/12/17 16:06:00;;;;;;;;;98.40;94.40;;;;;;;;5068982;27;8817;-81
2021/12/17 16:08:25;;;;;;;;;100.00;95.00;;;;;;;;5085239;27;8748;-80
2021/12/17 16:21:46;;;;;;;;;90.25;81.00;;;;;;;;5066025;28;11571;-84
2021/12/17 16:24:11;;;;;;;;;101.20;99.20;;;;;;;;5059326;27;8871;-85
2021/12/17 16:26:37;;;;;;;;;110.80;109.60;;;;;;;;5049741;28;8816;-85
2021/12/17 16:29:03;;;;;;;;;101.50;98.00;;;;;;;;5049431;27;8848;-86
2021/12/17 16:31:29;;;;;;;;;104.33;103.50;;;;;;;;5051831;28;8797;-88
2021/12/17 16:34:01;;;;;;;;;106.75;103.75;;;;;;;;5056864;27;8808;-81
2021/12/17 16:36:28;;;;;;;;;112.17;110.33;;;;;;;;5049086;28;8792;-81
2021/12/17 16:38:53;;;;;;;;;122.17;118.33;;;;;;;;5051985;27;8834;-82
2021/12/17 16:41:20;;;;;;;;;115.00;114.75;;;;;;;;5052282;27;8816;-81
2021/12/17 16:43:46;;;;;;;;;106.60;105.20;;;;;;;;5087071;27;8892;-81
2021/12/17 16:48:47;;;;;;;;;108.60;107.20;;;;;;;;5058819;28;9828;-85
2021/12/17 16:51:13;;;;;;;;;94.60;85.40;;;;;;;;5039167;27;8888;-85
2021/12/17 16:53:40;;;;;;;;;92.50;80.75;;;;;;;;5050601;27;9506;-84
2021/12/17 16:56:06;;;;;;;;;95.00;88.80;;;;;;;;5048327;27;8814;-84
2021/12/17 16:58:32;;;;;;;;;100.50;98.50;;;;;;;;5043650;27;8768;-83
2021/12/17 17:00:58;;;;;;;;;93.33;85.00;;;;;;;;5064853;28;9543;-84
2021/12/17 17:03:24;;;;;;;;;87.80;75.80;;;;;;;;5050513;27;8812;-79
2021/12/17 17:05:49;;;;;;;;;89.50;78.50;;;;;;;;5064054;27;8819;-83
2021/12/17 17:08:14;;;;;;;;;93.00;84.75;;;;;;;;5048769;27;8864;-81
2021/12/17 17:11:08;;;;;;;;;88.25;73.00;;;;;;;;5061217;28;11588;-89
2021/12/17 17:13:34;;;;;;;;;79.80;64.40;;;;;;;;5042577;28;8812;-84
2021/12/17 17:16:04;;;;;;;;;68.40;56.80;;;;;;;;5057008;27;8800;-83
2021/12/17 17:18:29;;;;;;;;;83.00;68.00;;;;;;;;5051047;28;8822;-84
2021/12/17 17:20:55;;;;;;;;;65.40;53.60;;;;;;;;5051577;27;8827;-84